sensor_id;sensor_type;location;lat;lon;timestamp;temperature;humidity
68842;SHT35;55849;48.482;2.332;2023-09-08T05:10:36;22.60;59.83
68842;SHT35;55849;48.482;2.332;2023-09-08T05:13:38;22.58;59.92
68842;SHT35;55849;48.482;2.332;2023-09-08T05:16:40;22.54;59.98
68842;SHT35;55849;48.482;2.332;2023-09-08T05:19:46;22.51;60.01
68842;SHT35;55849;48.482;2.332;2023-09-08T05:22:47;22.50;59.96
68842;SHT35;55849;48.482;2.332;2023-09-08T05:25:50;22.50;60.06
68842;SHT35;55849;48.482;2.332;2023-09-08T05:28:52;22.48;59.99
68842;SHT35;55849;48.482;2.332;2023-09-08T05:31:54;22.45;60.05
68842;SHT35;55849;48.482;2.332;2023-09-08T05:34:55;22.44;60.27
68842;SHT35;55849;48.482;2.332;2023-09-08T05:37:57;22.44;60.29
68842;SHT35;55849;48.482;2.332;2023-09-08T05:41:00;22.45;60.20
68842;SHT35;55849;48.482;2.332;2023-09-08T05:44:03;22.43;60.18
68842;SHT35;55849;48.482;2.332;2023-09-08T05:47:05;22.44;60.46
68842;SHT35;55849;48.482;2.332;2023-09-08T05:50:06;22.43;60.51
68842;SHT35;55849;48.482;2.332;2023-09-08T05:53:08;22.40;60.50
68842;SHT35;55849;48.482;2.332;2023-09-08T05:56:12;22.41;60.57
68842;SHT35;55849;48.482;2.332;2023-09-08T05:59:13;22.39;60.68
68842;SHT35;55849;48.482;2.332;2023-09-08T06:02:15;22.37;60.73
68842;SHT35;55849;48.482;2.332;2023-09-08T06:05:17;22.36;60.79
68842;SHT35;55849;48.482;2.332;2023-09-08T06:08:18;22.34;60.82
68842;SHT35;55849;48.482;2.332;2023-09-08T06:11:21;22.39;60.99
68842;SHT35;55849;48.482;2.332;2023-09-08T06:14:23;22.37;61.03
68842;SHT35;55849;48.482;2.332;2023-09-08T06:17:24;22.34;61.22
68842;SHT35;55849;48.482;2.332;2023-09-08T06:20:26;22.37;61.28
68842;SHT35;55849;48.482;2.332;2023-09-08T06:23:28;22.37;61.37
68842;SHT35;55849;48.482;2.332;2023-09-08T06:26:31;22.39;61.45
68842;SHT35;55849;48.482;2.332;2023-09-08T06:29:32;22.40;61.60
68842;SHT35;55849;48.482;2.332;2023-09-08T06:32:34;22.39;61.68
68842;SHT35;55849;48.482;2.332;2023-09-08T06:35:35;22.40;61.94
68842;SHT35;55849;48.482;2.332;2023-09-08T06:38:37;22.43;61.98
68842;SHT35;55849;48.482;2.332;2023-09-08T06:41:40;22.40;62.13
68842;SHT35;55849;48.482;2.332;2023-09-08T06:44:42;22.43;62.29
68842;SHT35;55849;48.482;2.332;2023-09-08T06:47:43;22.43;62.38
68842;SHT35;55849;48.482;2.332;2023-09-08T06:50:45;22.45;62.53
68842;SHT35;55849;48.482;2.332;2023-09-08T06:53:54;22.45;62.74
68842;SHT35;55849;48.482;2.332;2023-09-08T06:56:57;22.48;62.87
68842;SHT35;55849;48.482;2.332;2023-09-08T06:59:58;22.48;62.97
68842;SHT35;55849;48.482;2.332;2023-09-08T07:03:00;22.50;63.08
68842;SHT35;55849;48.482;2.332;2023-09-08T07:06:02;22.50;63.29
68842;SHT35;55849;48.482;2.332;2023-09-08T07:09:04;22.54;63.52
68842;SHT35;55849;48.482;2.332;2023-09-08T07:12:07;22.53;63.48
68842;SHT35;55849;48.482;2.332;2023-09-08T07:15:09;22.57;63.79
68842;SHT35;55849;48.482;2.332;2023-09-08T07:18:11;22.58;63.81
68842;SHT35;55849;48.482;2.332;2023-09-08T07:21:12;22.60;64.09
68842;SHT35;55849;48.482;2.332;2023-09-08T07:24:14;22.62;64.13
68842;SHT35;55849;48.482;2.332;2023-09-08T07:27:17;22.64;64.29
68842;SHT35;55849;48.482;2.332;2023-09-08T07:30:20;22.67;64.48
68842;SHT35;55849;48.482;2.332;2023-09-08T07:33:22;22.69;64.56
68842;SHT35;55849;48.482;2.332;2023-09-08T07:36:24;22.71;64.81
68842;SHT35;55849;48.482;2.332;2023-09-08T07:39:25;22.72;64.69
68842;SHT35;55849;48.482;2.332;2023-09-08T07:42:28;22.75;64.52
68842;SHT35;55849;48.482;2.332;2023-09-08T07:45:30;22.75;65.18
68842;SHT35;55849;48.482;2.332;2023-09-08T07:48:31;22.78;64.81
68842;SHT35;55849;48.482;2.332;2023-09-08T07:51:33;22.81;64.92
68842;SHT35;55849;48.482;2.332;2023-09-08T07:54:35;22.85;64.98
68842;SHT35;55849;48.482;2.332;2023-09-08T07:57:38;22.86;65.15
68842;SHT35;55849;48.482;2.332;2023-09-08T08:00:39;22.94;64.98
68842;SHT35;55849;48.482;2.332;2023-09-08T08:03:41;22.94;64.79
68842;SHT35;55849;48.482;2.332;2023-09-08T08:06:43;22.98;64.99
68842;SHT35;55849;48.482;2.332;2023-09-08T08:09:44;22.98;65.15
68842;SHT35;55849;48.482;2.332;2023-09-08T08:12:47;23.03;65.38
68842;SHT35;55849;48.482;2.332;2023-09-08T08:15:49;23.03;65.00
68842;SHT35;55849;48.482;2.332;2023-09-08T08:18:50;23.06;65.08
68842;SHT35;55849;48.482;2.332;2023-09-08T08:21:52;23.09;65.11
68842;SHT35;55849;48.482;2.332;2023-09-08T08:24:54;23.13;65.42
68842;SHT35;55849;48.482;2.332;2023-09-08T08:27:57;23.14;65.70
68842;SHT35;55849;48.482;2.332;2023-09-08T08:31:01;23.17;65.72
68842;SHT35;55849;48.482;2.332;2023-09-08T08:34:03;23.21;65.99
68842;SHT35;55849;48.482;2.332;2023-09-08T08:37:05;23.26;65.69
68842;SHT35;55849;48.482;2.332;2023-09-08T08:40:08;23.33;66.03
68842;SHT35;55849;48.482;2.332;2023-09-08T08:43:12;23.37;66.17
68842;SHT35;55849;48.482;2.332;2023-09-08T08:46:14;23.44;65.83
68842;SHT35;55849;48.482;2.332;2023-09-08T08:49:17;23.50;66.84
68842;SHT35;55849;48.482;2.332;2023-09-08T08:52:19;23.59;66.57
68842;SHT35;55849;48.482;2.332;2023-09-08T08:55:21;23.68;66.02
68842;SHT35;55849;48.482;2.332;2023-09-08T08:58:25;23.75;65.69
68842;SHT35;55849;48.482;2.332;2023-09-08T09:01:28;23.82;65.66
68842;SHT35;55849;48.482;2.332;2023-09-08T09:04:30;23.89;66.19
68842;SHT35;55849;48.482;2.332;2023-09-08T09:07:32;23.96;65.66
68842;SHT35;55849;48.482;2.332;2023-09-08T09:10:34;24.02;66.85
68842;SHT35;55849;48.482;2.332;2023-09-08T09:13:37;24.07;66.31
68842;SHT35;55849;48.482;2.332;2023-09-08T09:16:40;24.12;66.51
68842;SHT35;55849;48.482;2.332;2023-09-08T09:19:41;24.18;66.41
68842;SHT35;55849;48.482;2.332;2023-09-08T09:22:43;24.24;66.00
68842;SHT35;55849;48.482;2.332;2023-09-08T09:25:45;24.31;66.01
68842;SHT35;55849;48.482;2.332;2023-09-08T09:28:48;24.38;66.35
68842;SHT35;55849;48.482;2.332;2023-09-08T09:31:53;24.44;66.39
68842;SHT35;55849;48.482;2.332;2023-09-08T09:34:55;24.52;65.61
68842;SHT35;55849;48.482;2.332;2023-09-08T09:37:56;24.57;65.82
68842;SHT35;55849;48.482;2.332;2023-09-08T09:40:58;24.64;66.87
68842;SHT35;55849;48.482;2.332;2023-09-08T09:44:01;24.69;66.08
68842;SHT35;55849;48.482;2.332;2023-09-08T09:47:04;24.75;65.49
68842;SHT35;55849;48.482;2.332;2023-09-08T09:50:07;24.86;66.79
68842;SHT35;55849;48.482;2.332;2023-09-08T09:53:10;24.87;66.17
68842;SHT35;55849;48.482;2.332;2023-09-08T09:56:13;24.97;65.78
68842;SHT35;55849;48.482;2.332;2023-09-08T09:59:17;25.03;65.29
68842;SHT35;55849;48.482;2.332;2023-09-08T10:02:20;25.11;65.87
68842;SHT35;55849;48.482;2.332;2023-09-08T10:05:21;25.18;65.61
68842;SHT35;55849;48.482;2.332;2023-09-08T10:08:23;25.23;65.55
68842;SHT35;55849;48.482;2.332;2023-09-08T10:11:28;25.30;65.47
68842;SHT35;55849;48.482;2.332;2023-09-08T10:14:32;25.38;65.72
68842;SHT35;55849;48.482;2.332;2023-09-08T10:17:37;25.42;66.72
68842;SHT35;55849;48.482;2.332;2023-09-08T10:20:39;25.49;66.44
68842;SHT35;55849;48.482;2.332;2023-09-08T10:23:44;25.55;65.04
68842;SHT35;55849;48.482;2.332;2023-09-08T10:26:53;25.62;64.58
68842;SHT35;55849;48.482;2.332;2023-09-08T10:30:00;25.68;64.90
68842;SHT35;55849;48.482;2.332;2023-09-08T10:33:05;25.73;64.88
68842;SHT35;55849;48.482;2.332;2023-09-08T10:36:08;25.80;64.57
68842;SHT35;55849;48.482;2.332;2023-09-08T10:39:29;25.86;64.03
68842;SHT35;55849;48.482;2.332;2023-09-08T10:42:32;25.92;64.16
68842;SHT35;55849;48.482;2.332;2023-09-08T10:45:35;25.97;63.99
68842;SHT35;55849;48.482;2.332;2023-09-08T10:48:40;26.05;63.23
68842;SHT35;55849;48.482;2.332;2023-09-08T10:51:43;26.16;63.33
68842;SHT35;55849;48.482;2.332;2023-09-08T10:54:47;26.21;61.05
68842;SHT35;55849;48.482;2.332;2023-09-08T10:57:54;26.29;61.07
68842;SHT35;55849;48.482;2.332;2023-09-08T11:00:59;26.39;61.60
68842;SHT35;55849;48.482;2.332;2023-09-08T11:04:04;26.45;62.33
68842;SHT35;55849;48.482;2.332;2023-09-08T11:07:09;26.53;61.45
68842;SHT35;55849;48.482;2.332;2023-09-08T11:10:12;26.57;60.51
68842;SHT35;55849;48.482;2.332;2023-09-08T11:13:13;26.64;60.88
68842;SHT35;55849;48.482;2.332;2023-09-08T11:16:16;26.73;59.08
68842;SHT35;55849;48.482;2.332;2023-09-08T11:19:23;26.84;59.68
68842;SHT35;55849;48.482;2.332;2023-09-08T11:22:25;26.93;57.92
68842;SHT35;55849;48.482;2.332;2023-09-08T11:25:28;27.05;58.14
68842;SHT35;55849;48.482;2.332;2023-09-08T11:28:29;27.20;57.01
68842;SHT35;55849;48.482;2.332;2023-09-08T11:31:33;27.35;57.13
68842;SHT35;55849;48.482;2.332;2023-09-08T11:34:36;27.46;57.56
68842;SHT35;55849;48.482;2.332;2023-09-08T11:37:39;27.57;57.11
68842;SHT35;55849;48.482;2.332;2023-09-08T11:40:41;27.70;58.69
68842;SHT35;55849;48.482;2.332;2023-09-08T11:43:43;27.80;60.10
68842;SHT35;55849;48.482;2.332;2023-09-08T11:46:46;27.94;57.47
68842;SHT35;55849;48.482;2.332;2023-09-08T11:49:48;28.04;58.27
68842;SHT35;55849;48.482;2.332;2023-09-08T11:52:51;28.15;57.00
68842;SHT35;55849;48.482;2.332;2023-09-08T11:55:52;28.28;56.97
68842;SHT35;55849;48.482;2.332;2023-09-08T11:58:54;28.42;57.19
68842;SHT35;55849;48.482;2.332;2023-09-08T12:01:58;28.55;55.82
68842;SHT35;55849;48.482;2.332;2023-09-08T12:05:00;28.69;54.96
68842;SHT35;55849;48.482;2.332;2023-09-08T12:08:03;28.80;56.21
68842;SHT35;55849;48.482;2.332;2023-09-08T12:11:06;28.95;55.88
68842;SHT35;55849;48.482;2.332;2023-09-08T12:14:10;29.14;53.77
68842;SHT35;55849;48.482;2.332;2023-09-08T12:17:13;29.30;54.19
68842;SHT35;55849;48.482;2.332;2023-09-08T12:20:18;29.47;53.46
68842;SHT35;55849;48.482;2.332;2023-09-08T12:23:21;29.66;52.73
68842;SHT35;55849;48.482;2.332;2023-09-08T12:26:24;29.84;53.34
68842;SHT35;55849;48.482;2.332;2023-09-08T12:29:26;30.04;52.63
68842;SHT35;55849;48.482;2.332;2023-09-08T12:32:31;30.29;52.20
68842;SHT35;55849;48.482;2.332;2023-09-08T12:35:34;30.55;51.71
68842;SHT35;55849;48.482;2.332;2023-09-08T12:38:36;30.77;51.20
68842;SHT35;55849;48.482;2.332;2023-09-08T12:41:38;31.00;50.63
68842;SHT35;55849;48.482;2.332;2023-09-08T12:44:39;31.27;50.00
68842;SHT35;55849;48.482;2.332;2023-09-08T12:47:43;31.53;48.60
68842;SHT35;55849;48.482;2.332;2023-09-08T12:50:46;31.80;48.70
68842;SHT35;55849;48.482;2.332;2023-09-08T12:53:48;32.02;47.59
68842;SHT35;55849;48.482;2.332;2023-09-08T12:56:49;32.26;47.42
68842;SHT35;55849;48.482;2.332;2023-09-08T12:59:51;32.49;47.47
68842;SHT35;55849;48.482;2.332;2023-09-08T13:02:54;32.72;47.08
68842;SHT35;55849;48.482;2.332;2023-09-08T13:05:56;32.95;46.53
68842;SHT35;55849;48.482;2.332;2023-09-08T13:08:57;33.18;45.97
68842;SHT35;55849;48.482;2.332;2023-09-08T13:12:00;33.39;46.10
68842;SHT35;55849;48.482;2.332;2023-09-08T13:15:01;33.61;48.38
68842;SHT35;55849;48.482;2.332;2023-09-08T13:18:05;33.82;44.96
68842;SHT35;55849;48.482;2.332;2023-09-08T13:21:06;34.09;44.82
68842;SHT35;55849;48.482;2.332;2023-09-08T13:24:09;34.29;44.12
68842;SHT35;55849;48.482;2.332;2023-09-08T13:27:11;34.57;46.04
68842;SHT35;55849;48.482;2.332;2023-09-08T13:30:14;34.80;45.06
68842;SHT35;55849;48.482;2.332;2023-09-08T13:33:17;34.96;43.40
68842;SHT35;55849;48.482;2.332;2023-09-08T13:36:18;35.02;41.83
68842;SHT35;55849;48.482;2.332;2023-09-08T13:39:20;34.99;43.52
68842;SHT35;55849;48.482;2.332;2023-09-08T13:42:22;34.96;43.12
68842;SHT35;55849;48.482;2.332;2023-09-08T13:45:23;34.96;44.71
68842;SHT35;55849;48.482;2.332;2023-09-08T13:48:26;35.09;40.69
68842;SHT35;55849;48.482;2.332;2023-09-08T13:51:28;35.22;40.31
68842;SHT35;55849;48.482;2.332;2023-09-08T13:54:30;35.44;40.44
68842;SHT35;55849;48.482;2.332;2023-09-08T13:57:31;35.64;40.74
68842;SHT35;55849;48.482;2.332;2023-09-08T14:00:33;35.91;39.60
68842;SHT35;55849;48.482;2.332;2023-09-08T14:03:36;36.12;39.54
68842;SHT35;55849;48.482;2.332;2023-09-08T14:06:38;36.34;41.10
68842;SHT35;55849;48.482;2.332;2023-09-08T14:09:39;36.51;39.34
68842;SHT35;55849;48.482;2.332;2023-09-08T14:12:41;36.72;38.51
68842;SHT35;55849;48.482;2.332;2023-09-08T14:15:42;36.86;38.96
68842;SHT35;55849;48.482;2.332;2023-09-08T14:18:45;36.96;39.33
68842;SHT35;55849;48.482;2.332;2023-09-08T14:21:47;36.95;39.64
68842;SHT35;55849;48.482;2.332;2023-09-08T14:24:49;36.88;38.13
68842;SHT35;55849;48.482;2.332;2023-09-08T14:27:50;36.85;39.41
68842;SHT35;55849;48.482;2.332;2023-09-08T14:30:52;36.85;39.81
68842;SHT35;55849;48.482;2.332;2023-09-08T14:33:55;36.85;38.13
68842;SHT35;55849;48.482;2.332;2023-09-08T14:36:56;36.81;37.38
68842;SHT35;55849;48.482;2.332;2023-09-08T14:39:58;36.70;37.91
68842;SHT35;55849;48.482;2.332;2023-09-08T14:43:00;36.54;38.74
68842;SHT35;55849;48.482;2.332;2023-09-08T14:46:01;36.32;39.48
68842;SHT35;55849;48.482;2.332;2023-09-08T14:49:05;36.12;40.02
68842;SHT35;55849;48.482;2.332;2023-09-08T14:52:06;35.89;41.58
68842;SHT35;55849;48.482;2.332;2023-09-08T14:55:08;35.89;42.77
68842;SHT35;55849;48.482;2.332;2023-09-08T14:58:10;35.98;42.53
68842;SHT35;55849;48.482;2.332;2023-09-08T15:01:13;36.02;38.54
68842;SHT35;55849;48.482;2.332;2023-09-08T15:04:16;36.10;40.93
68842;SHT35;55849;48.482;2.332;2023-09-08T15:07:17;36.19;39.88
68842;SHT35;55849;48.482;2.332;2023-09-08T15:10:19;36.34;40.17
68842;SHT35;55849;48.482;2.332;2023-09-08T15:13:20;36.55;40.12
68842;SHT35;55849;48.482;2.332;2023-09-08T15:16:22;36.74;38.46
68842;SHT35;55849;48.482;2.332;2023-09-08T15:19:25;36.91;40.24
68842;SHT35;55849;48.482;2.332;2023-09-08T15:22:27;36.99;39.61
68842;SHT35;55849;48.482;2.332;2023-09-08T15:25:28;36.91;39.97
68842;SHT35;55849;48.482;2.332;2023-09-08T15:28:30;36.75;40.39
68842;SHT35;55849;48.482;2.332;2023-09-08T15:31:32;36.52;40.65
68842;SHT35;55849;48.482;2.332;2023-09-08T15:34:35;36.36;40.83
68842;SHT35;55849;48.482;2.332;2023-09-08T15:37:36;36.29;41.41
68842;SHT35;55849;48.482;2.332;2023-09-08T15:40:52;36.20;41.55
68842;SHT35;55849;48.482;2.332;2023-09-08T15:43:56;36.00;41.19
68842;SHT35;55849;48.482;2.332;2023-09-08T15:46:57;35.84;41.69
68842;SHT35;55849;48.482;2.332;2023-09-08T15:50:01;35.61;42.11
68842;SHT35;55849;48.482;2.332;2023-09-08T15:53:04;35.46;42.51
68842;SHT35;55849;48.482;2.332;2023-09-08T15:56:07;35.36;42.62
68842;SHT35;55849;48.482;2.332;2023-09-08T15:59:09;35.32;42.90
68842;SHT35;55849;48.482;2.332;2023-09-08T16:02:10;35.32;43.41
68842;SHT35;55849;48.482;2.332;2023-09-08T16:05:13;35.32;43.76
68842;SHT35;55849;48.482;2.332;2023-09-08T16:08:16;35.39;44.16
68842;SHT35;55849;48.482;2.332;2023-09-08T16:11:17;35.48;43.72
68842;SHT35;55849;48.482;2.332;2023-09-08T16:14:19;35.58;43.84
68842;SHT35;55849;48.482;2.332;2023-09-08T16:17:21;35.70;43.99
68842;SHT35;55849;48.482;2.332;2023-09-08T16:20:25;35.73;43.91
68842;SHT35;55849;48.482;2.332;2023-09-08T16:23:26;35.73;43.78
68842;SHT35;55849;48.482;2.332;2023-09-08T16:26:28;35.64;43.52
68842;SHT35;55849;48.482;2.332;2023-09-08T16:29:29;35.48;44.10
68842;SHT35;55849;48.482;2.332;2023-09-08T16:32:31;35.27;44.01
68842;SHT35;55849;48.482;2.332;2023-09-08T16:35:35;35.09;44.66
68842;SHT35;55849;48.482;2.332;2023-09-08T16:38:37;34.87;45.01
68842;SHT35;55849;48.482;2.332;2023-09-08T16:41:39;34.71;45.21
68842;SHT35;55849;48.482;2.332;2023-09-08T16:44:41;34.57;45.76
68842;SHT35;55849;48.482;2.332;2023-09-08T16:47:43;34.47;45.90
68842;SHT35;55849;48.482;2.332;2023-09-08T16:50:46;34.40;46.15
68842;SHT35;55849;48.482;2.332;2023-09-08T16:53:48;34.33;46.56
68842;SHT35;55849;48.482;2.332;2023-09-08T16:56:49;34.23;46.63
68842;SHT35;55849;48.482;2.332;2023-09-08T16:59:51;34.12;46.60
68842;SHT35;55849;48.482;2.332;2023-09-08T17:02:53;34.01;46.92
68842;SHT35;55849;48.482;2.332;2023-09-08T17:05:55;33.87;46.81
68842;SHT35;55849;48.482;2.332;2023-09-08T17:08:57;33.75;47.20
68842;SHT35;55849;48.482;2.332;2023-09-08T17:11:59;33.62;47.01
68842;SHT35;55849;48.482;2.332;2023-09-08T17:15:01;33.49;48.11
68842;SHT35;55849;48.482;2.332;2023-09-08T17:18:03;33.37;48.06
68842;SHT35;55849;48.482;2.332;2023-09-08T17:21:06;33.25;48.37
68842;SHT35;55849;48.482;2.332;2023-09-08T17:24:08;33.11;48.58
68842;SHT35;55849;48.482;2.332;2023-09-08T17:27:09;32.96;49.08
68842;SHT35;55849;48.482;2.332;2023-09-08T17:30:12;32.82;49.05
68842;SHT35;55849;48.482;2.332;2023-09-08T17:33:13;32.72;49.34
68842;SHT35;55849;48.482;2.332;2023-09-08T17:36:17;32.63;49.53
68842;SHT35;55849;48.482;2.332;2023-09-08T17:39:19;32.53;50.41
68842;SHT35;55849;48.482;2.332;2023-09-08T17:42:21;32.40;50.51
68842;SHT35;55849;48.482;2.332;2023-09-08T17:45:22;32.26;51.23
68842;SHT35;55849;48.482;2.332;2023-09-08T17:48:24;32.18;51.57
68842;SHT35;55849;48.482;2.332;2023-09-08T17:51:27;32.06;51.69
68842;SHT35;55849;48.482;2.332;2023-09-08T17:54:29;31.99;51.84
68842;SHT35;55849;48.482;2.332;2023-09-08T17:57:31;31.91;51.70
68842;SHT35;55849;48.482;2.332;2023-09-08T18:00:32;31.78;51.90
68842;SHT35;55849;48.482;2.332;2023-09-08T18:03:34;31.66;52.10
68842;SHT35;55849;48.482;2.332;2023-09-08T18:06:37;31.57;51.87
68842;SHT35;55849;48.482;2.332;2023-09-08T18:09:38;31.46;52.07
68842;SHT35;55849;48.482;2.332;2023-09-08T18:12:40;31.37;52.31
68842;SHT35;55849;48.482;2.332;2023-09-08T18:15:41;31.27;52.40
68842;SHT35;55849;48.482;2.332;2023-09-08T18:18:43;31.16;52.37
68842;SHT35;55849;48.482;2.332;2023-09-08T18:21:47;31.03;52.37
68842;SHT35;55849;48.482;2.332;2023-09-08T18:24:48;30.95;52.60
68842;SHT35;55849;48.482;2.332;2023-09-08T18:27:50;30.87;52.58
68842;SHT35;55849;48.482;2.332;2023-09-08T18:30:52;30.78;52.47
68842;SHT35;55849;48.482;2.332;2023-09-08T18:33:53;30.67;52.53
68842;SHT35;55849;48.482;2.332;2023-09-08T18:36:56;30.57;52.64
68842;SHT35;55849;48.482;2.332;2023-09-08T18:39:58;30.50;52.72
68842;SHT35;55849;48.482;2.332;2023-09-08T18:42:59;30.39;52.83
68842;SHT35;55849;48.482;2.332;2023-09-08T18:46:01;30.35;52.87
68842;SHT35;55849;48.482;2.332;2023-09-08T18:49:02;30.26;52.94
68842;SHT35;55849;48.482;2.332;2023-09-08T18:52:06;30.19;52.63
68842;SHT35;55849;48.482;2.332;2023-09-08T18:55:08;30.11;52.83
68842;SHT35;55849;48.482;2.332;2023-09-08T18:58:09;30.04;52.73
68842;SHT35;55849;48.482;2.332;2023-09-08T19:01:11;29.98;52.69
68842;SHT35;55849;48.482;2.332;2023-09-08T19:04:12;29.92;52.81
68842;SHT35;55849;48.482;2.332;2023-09-08T19:07:15;29.84;52.87
68842;SHT35;55849;48.482;2.332;2023-09-08T19:10:17;29.77;52.69
68842;SHT35;55849;48.482;2.332;2023-09-08T19:13:19;29.71;52.81
68842;SHT35;55849;48.482;2.332;2023-09-08T19:16:21;29.66;52.74
68842;SHT35;55849;48.482;2.332;2023-09-08T19:19:22;29.62;52.58
68842;SHT35;55849;48.482;2.332;2023-09-08T19:22:25;29.57;52.36
68842;SHT35;55849;48.482;2.332;2023-09-08T19:25:27;29.53;52.27
68842;SHT35;55849;48.482;2.332;2023-09-08T19:28:28;29.43;52.29
68842;SHT35;55849;48.482;2.332;2023-09-08T19:31:30;29.37;52.47
68842;SHT35;55849;48.482;2.332;2023-09-08T19:34:32;29.32;52.31
68842;SHT35;55849;48.482;2.332;2023-09-08T19:37:35;29.25;52.42
68842;SHT35;55849;48.482;2.332;2023-09-08T19:40:36;29.18;52.40
68842;SHT35;55849;48.482;2.332;2023-09-08T19:43:38;29.12;52.48
68842;SHT35;55849;48.482;2.332;2023-09-08T19:46:40;29.07;52.38
68842;SHT35;55849;48.482;2.332;2023-09-08T19:49:42;29.02;52.62
68842;SHT35;55849;48.482;2.332;2023-09-08T19:52:44;28.94;52.69
68842;SHT35;55849;48.482;2.332;2023-09-08T19:55:46;28.87;52.81
68842;SHT35;55849;48.482;2.332;2023-09-08T19:58:49;28.78;52.89
68842;SHT35;55849;48.482;2.332;2023-09-08T20:01:51;28.74;52.90
68842;SHT35;55849;48.482;2.332;2023-09-08T20:04:53;28.67;53.03
68842;SHT35;55849;48.482;2.332;2023-09-08T20:07:56;28.57;53.05
68842;SHT35;55849;48.482;2.332;2023-09-08T20:10:58;28.53;53.04
68842;SHT35;55849;48.482;2.332;2023-09-08T20:13:59;28.49;53.16
68842;SHT35;55849;48.482;2.332;2023-09-08T20:17:01;28.45;53.03
68842;SHT35;55849;48.482;2.332;2023-09-08T20:20:04;28.38;53.24
68842;SHT35;55849;48.482;2.332;2023-09-08T20:23:07;28.31;53.50
68842;SHT35;55849;48.482;2.332;2023-09-08T20:26:12;28.25;53.47
68842;SHT35;55849;48.482;2.332;2023-09-08T20:29:13;28.19;53.60
68842;SHT35;55849;48.482;2.332;2023-09-08T20:32:15;28.14;53.58
68842;SHT35;55849;48.482;2.332;2023-09-08T20:35:16;28.09;53.64
68842;SHT35;55849;48.482;2.332;2023-09-08T20:38:19;28.04;53.82
68842;SHT35;55849;48.482;2.332;2023-09-08T20:41:21;27.93;53.77
68842;SHT35;55849;48.482;2.332;2023-09-08T20:44:22;27.90;53.83
68842;SHT35;55849;48.482;2.332;2023-09-08T20:47:24;27.84;53.90
68842;SHT35;55849;48.482;2.332;2023-09-08T20:50:26;27.79;53.89
68842;SHT35;55849;48.482;2.332;2023-09-08T20:53:30;27.74;54.07
68842;SHT35;55849;48.482;2.332;2023-09-08T20:56:31;27.71;54.22
68842;SHT35;55849;48.482;2.332;2023-09-08T20:59:33;27.63;54.30
68842;SHT35;55849;48.482;2.332;2023-09-08T21:02:35;27.59;54.27
68842;SHT35;55849;48.482;2.332;2023-09-08T21:05:36;27.53;54.32
68842;SHT35;55849;48.482;2.332;2023-09-08T21:08:40;27.49;54.40
68842;SHT35;55849;48.482;2.332;2023-09-08T21:11:41;27.45;54.48
68842;SHT35;55849;48.482;2.332;2023-09-08T21:14:45;27.39;54.62
68842;SHT35;55849;48.482;2.332;2023-09-08T21:17:46;27.34;54.70
68842;SHT35;55849;48.482;2.332;2023-09-08T21:20:48;27.28;54.82
68842;SHT35;55849;48.482;2.332;2023-09-08T21:23:51;27.24;54.78
68842;SHT35;55849;48.482;2.332;2023-09-08T21:26:52;27.21;54.76
68842;SHT35;55849;48.482;2.332;2023-09-08T21:29:54;27.14;54.75
68842;SHT35;55849;48.482;2.332;2023-09-08T21:32:56;27.14;54.91
68842;SHT35;55849;48.482;2.332;2023-09-08T21:35:58;27.11;55.01
68842;SHT35;55849;48.482;2.332;2023-09-08T21:39:00;27.05;55.05
68842;SHT35;55849;48.482;2.332;2023-09-08T21:42:03;27.00;55.08
68842;SHT35;55849;48.482;2.332;2023-09-08T21:45:06;26.96;55.09
68842;SHT35;55849;48.482;2.332;2023-09-08T21:48:08;26.90;55.14
68842;SHT35;55849;48.482;2.332;2023-09-08T21:51:09;26.83;55.31
68842;SHT35;55849;48.482;2.332;2023-09-08T21:54:12;26.84;55.26
68842;SHT35;55849;48.482;2.332;2023-09-08T21:57:14;26.83;55.36
68842;SHT35;55849;48.482;2.332;2023-09-08T22:00:16;26.78;55.47
68842;SHT35;55849;48.482;2.332;2023-09-08T22:03:21;26.75;55.61
68842;SHT35;55849;48.482;2.332;2023-09-08T22:06:22;26.68;55.73
68842;SHT35;55849;48.482;2.332;2023-09-08T22:09:25;26.64;55.82
68842;SHT35;55849;48.482;2.332;2023-09-08T22:12:27;26.62;55.95
68842;SHT35;55849;48.482;2.332;2023-09-08T22:15:29;26.56;55.87
68842;SHT35;55849;48.482;2.332;2023-09-08T22:18:30;26.52;56.23
68842;SHT35;55849;48.482;2.332;2023-09-08T22:21:32;26.48;56.26
68842;SHT35;55849;48.482;2.332;2023-09-08T22:24:35;26.45;56.40
68842;SHT35;55849;48.482;2.332;2023-09-08T22:27:37;26.42;56.44
68842;SHT35;55849;48.482;2.332;2023-09-08T22:30:39;26.37;56.53
68842;SHT35;55849;48.482;2.332;2023-09-08T22:33:41;26.35;56.62
68842;SHT35;55849;48.482;2.332;2023-09-08T22:36:42;26.29;56.73
68842;SHT35;55849;48.482;2.332;2023-09-08T22:39:45;26.28;56.83
68842;SHT35;55849;48.482;2.332;2023-09-08T22:42:48;26.22;56.92
68842;SHT35;55849;48.482;2.332;2023-09-08T22:45:50;26.20;56.89
68842;SHT35;55849;48.482;2.332;2023-09-08T22:48:52;26.17;57.13
68842;SHT35;55849;48.482;2.332;2023-09-08T22:51:54;26.13;57.20
68842;SHT35;55849;48.482;2.332;2023-09-08T22:54:57;26.07;57.28
68842;SHT35;55849;48.482;2.332;2023-09-08T22:57:58;26.04;57.38
